This is the latest recevied weather packets stored in our database for station/object ZL1CTS-13. If no packets are shown the sender has not sent any weather packets the latest 10 day(s).
| Time | Temp. | Humidity | Pressure | Rain* | Wind** | Luminosity | Snow |
|---|---|---|---|---|---|---|---|
| 1788558604 | 14.44° C | 79% | 1008.5 hPa | 0 mm | - | - | - |
| 1788558304 | 15° C | 76% | 1008.6 hPa | 0 mm | - | - | - |
| 1788558304 | 15° C | 76% | 1008.6 hPa | 0 mm | - | - | - |
| 1788558005 | 16.67° C | 77% | 1008.7 hPa | 0 mm | - | - | - |
| 1788557704 | 16.11° C | 79% | 1008.6 hPa | 0 mm | - | - | - |
| 1788557405 | 15.56° C | 82% | 1008.7 hPa | 0 mm | - | - | - |
| 1788557405 | 15.56° C | 82% | 1008.7 hPa | 0 mm | - | - | - |
| 1788557104 | 14.44° C | 86% | 1008.6 hPa | 0 mm | - | - | - |
| 1788556805 | 13.33° C | 91% | 1008.7 hPa | 0 mm | - | - | - |
| 1788556504 | 12.78° C | 91% | 1008.9 hPa | 0 mm | - | - | - |
| 1788556504 | 12.78° C | 91% | 1008.9 hPa | 0 mm | - | - | - |
| 1788556205 | 12.78° C | 93% | 1008.8 hPa | 0 mm | - | - | - |
| 1788555903 | 12.22° C | 95% | 1008.9 hPa | 0 mm | - | - | - |
| 1788555606 | 12.22° C | 96% | 1008.9 hPa | 0 mm | - | - | - |
| 1788555604 | 12.22° C | 96% | 1008.8 hPa | 0 mm | - | - | - |
| 1788555303 | 11.67° C | 98% | 1008.9 hPa | 0 mm | - | - | - |
| 1788555007 | 11.67° C | 98% | 1008.7 hPa | 0 mm | - | - | - |
| 1788554704 | 11.11° C | 98% | 1008.7 hPa | 0 mm | - | - | - |
| 1788554703 | 11.11° C | 98% | 1008.7 hPa | 0 mm | - | - | - |
| 1788554406 | 11.11° C | 98% | 1008.6 hPa | 0 mm | - | - | - |
| 1788554104 | 11.11° C | 99% | 1008.7 hPa | 0 mm | - | - | - |
| 1788553803 | 10.56° C | 99% | 1008.4 hPa | 0 mm | - | - | - |
| 1788553803 | 10.56° C | 99% | 1008.4 hPa | 0 mm | - | - | - |
| 1788553503 | 10.56° C | 99% | 1008.5 hPa | 0 mm | - | - | - |
| 1788553204 | 10° C | 99% | 1008.4 hPa | 0 mm | - | - | - |
* Rain latest hour (hover to see other rain measurements)
** Current wind speed in m/s (hover to see current wind gust speed)